Time;durP1;ratioP1;P1;durP2;ratioP2;P2;SDS_P1;SDS_P2;PMS_P1;PMS_P2;Temp;Humidity;BMP_temperature;BMP_pressure;BME280_temperature;BME280_humidity;BME280_pressure;Samples;Min_cycle;Max_cycle;Signal;HPM_P1;HPM_P2
2022/06/12 00:01:59;;;;;;;9.30;6.90;;;;;;;18.79;100.00;99874.09;5014718;28;20513;-79
2022/06/12 00:04:27;;;;;;;6.30;5.70;;;;;;;18.82;100.00;99883.88;5014381;28;20856;-79
2022/06/12 00:06:53;;;;;;;9.27;6.55;;;;;;;18.78;100.00;99876.94;5014526;28;20187;-80
2022/06/12 00:09:21;;;;;;;10.70;7.47;;;;;;;18.74;100.00;99882.63;5014946;28;20300;-80
2022/06/12 00:11:47;;;;;;;7.45;6.70;;;;;;;18.63;100.00;99873.66;5015011;28;20205;-79
2022/06/12 00:14:15;;;;;;;11.10;6.30;;;;;;;18.59;100.00;99873.09;5015041;28;20636;-80
2022/06/12 00:16:44;;;;;;;7.25;6.13;;;;;;;18.59;100.00;99877.66;5014737;28;20437;-80
2022/06/12 00:19:11;;;;;;;7.97;6.47;;;;;;;18.57;100.00;99866.91;5021784;28;20194;-79
2022/06/12 00:21:40;;;;;;;11.35;6.45;;;;;;;18.62;100.00;99871.94;5032983;28;20188;-80
2022/06/12 00:24:10;;;;;;;8.48;7.10;;;;;;;18.70;100.00;99867.56;5034315;28;20288;-79
2022/06/12 00:26:40;;;;;;;10.63;5.93;;;;;;;18.78;100.00;99858.72;5028730;28;20276;-80
2022/06/12 00:29:11;;;;;;;7.03;5.82;;;;;;;18.63;100.00;99868.22;5014207;28;20237;-79
2022/06/12 00:31:41;;;;;;;8.65;6.50;;;;;;;18.43;100.00;99859.91;5014616;28;20203;-80
2022/06/12 00:34:09;;;;;;;7.28;6.20;;;;;;;18.45;100.00;99863.38;5014510;28;20191;-79
2022/06/12 00:36:36;;;;;;;8.68;6.22;;;;;;;18.49;100.00;99864.81;5014202;28;20225;-79
2022/06/12 00:39:04;;;;;;;7.50;6.68;;;;;;;18.59;100.00;99864.00;5014065;28;20186;-79
2022/06/12 00:41:31;;;;;;;8.40;6.85;;;;;;;18.66;100.00;99862.50;5014273;28;20295;-79
2022/06/12 00:43:58;;;;;;;11.27;9.02;;;;;;;18.59;100.00;99861.28;5013566;28;20193;-79
2022/06/12 00:46:41;;;;;;;10.60;6.97;;;;;;;18.53;100.00;99868.16;5014794;28;20193;-80
2022/06/12 00:49:10;;;;;;;9.15;7.40;;;;;;;18.53;100.00;99866.28;5013982;28;20249;-80
2022/06/12 00:51:37;;;;;;;9.25;7.20;;;;;;;18.60;100.00;99869.34;5013799;28;20671;-80
2022/06/12 00:54:07;;;;;;;9.07;6.82;;;;;;;18.54;100.00;99876.22;5013482;28;20224;-80
2022/06/12 00:56:37;;;;;;;8.10;7.30;;;;;;;18.52;100.00;99870.03;5013502;28;20205;-80
2022/06/12 00:59:07;;;;;;;8.02;6.50;;;;;;;18.46;100.00;99872.41;5013133;28;20292;-80
2022/06/12 01:01:35;;;;;;;7.82;6.95;;;;;;;18.38;100.00;99874.94;5013810;28;20185;-80
2022/06/12 01:06:49;;;;;;;7.35;6.60;;;;;;;18.31;100.00;99874.59;5013694;28;20189;-80
2022/06/12 01:09:22;;;;;;;7.75;6.97;;;;;;;18.14;100.00;99870.59;5013652;28;20301;-80
2022/06/12 01:11:53;;;;;;;9.95;8.00;;;;;;;18.08;100.00;99874.69;5014060;28;20277;-80
2022/06/12 01:14:24;;;;;;;11.43;6.90;;;;;;;18.16;100.00;99876.78;5013921;28;20189;-81
2022/06/12 01:16:53;;;;;;;8.05;6.57;;;;;;;18.22;100.00;99876.25;5013657;28;20279;-80
2022/06/12 01:19:26;;;;;;;10.85;6.10;;;;;;;18.05;100.00;99876.84;5014072;28;20563;-80
2022/06/12 01:22:21;;;;;;;9.85;7.22;;;;;;;18.19;100.00;99876.50;5013602;28;20191;-80
2022/06/12 01:25:05;;;;;;;7.60;5.60;;;;;;;18.17;100.00;99877.66;5013711;28;20203;-80
2022/06/12 01:27:56;;;;;;;7.53;6.57;;;;;;;18.21;100.00;99885.44;5013105;28;20281;-80
2022/06/12 01:30:33;;;;;;;8.68;5.90;;;;;;;18.21;100.00;99879.13;5012162;28;20317;-80
2022/06/12 01:33:06;;;;;;;9.13;6.45;;;;;;;18.10;100.00;99888.19;5013298;28;20181;-80
2022/06/12 01:35:42;;;;;;;8.70;6.88;;;;;;;18.20;100.00;99886.41;5013154;28;20188;-79
2022/06/12 01:38:17;;;;;;;7.57;5.93;;;;;;;18.19;100.00;99881.97;5013254;28;20280;-81
2022/06/12 01:40:53;;;;;;;6.20;5.60;;;;;;;18.20;100.00;99871.91;5013215;28;20246;-79
2022/06/12 01:43:25;;;;;;;9.88;7.53;;;;;;;18.27;100.00;99878.56;5012923;28;20187;-80
2022/06/12 01:46:02;;;;;;;7.57;6.18;;;;;;;18.24;100.00;99879.69;5012781;28;20186;-80
2022/06/12 01:48:37;;;;;;;6.57;5.90;;;;;;;18.16;100.00;99879.50;5012742;28;20280;-80
2022/06/12 01:51:13;;;;;;;15.55;6.63;;;;;;;18.10;100.00;99885.47;5012923;28;20225;-79
2022/06/12 01:53:49;;;;;;;7.20;6.45;;;;;;;18.10;100.00;99880.03;5013048;28;20193;-80
2022/06/12 01:56:20;;;;;;;16.75;6.85;;;;;;;18.07;100.00;99883.88;5012999;28;20275;-79
2022/06/12 01:58:55;;;;;;;6.90;6.13;;;;;;;17.89;100.00;99877.28;5012231;28;20188;-80
2022/06/12 02:01:29;;;;;;;8.13;6.25;;;;;;;17.96;100.00;99875.75;5012734;28;20536;-80
2022/06/12 02:04:04;;;;;;;14.32;9.45;;;;;;;18.11;100.00;99874.47;5012954;28;20215;-81
2022/06/12 02:06:35;;;;;;;9.65;8.07;;;;;;;18.06;100.00;99871.25;5012961;28;20196;-81
2022/06/12 02:09:05;;;;;;;11.80;9.48;;;;;;;17.83;100.00;99885.94;5012359;28;20187;-80
2022/06/12 02:14:26;;;;;;;30.30;21.67;;;;;;;17.76;100.00;99881.97;5012772;28;20195;-80
2022/06/12 02:17:00;;;;;;;10.43;6.95;;;;;;;17.78;100.00;99874.56;5012721;28;20198;-81
2022/06/12 02:19:34;;;;;;;13.10;8.30;;;;;;;17.94;100.00;99872.28;5012474;28;20276;-80
2022/06/12 02:22:06;;;;;;;8.50;7.40;;;;;;;17.78;100.00;99869.09;5013137;28;20234;-80
2022/06/12 02:24:38;;;;;;;8.55;6.82;;;;;;;17.67;100.00;99859.09;5012839;28;20638;-80
2022/06/12 02:27:09;;;;;;;8.30;7.00;;;;;;;17.83;100.00;99870.47;4992891;28;20200;-81
2022/06/12 02:29:39;;;;;;;9.38;7.18;;;;;;;17.83;100.00;99869.59;4992898;28;20674;-80
2022/06/12 02:32:13;;;;;;;8.20;6.57;;;;;;;17.70;100.00;99857.00;4993044;28;20195;-81
2022/06/12 02:34:43;;;;;;;9.00;7.25;;;;;;;17.83;100.00;99862.28;4993336;28;20276;-81
2022/06/12 02:37:18;;;;;;;7.13;6.35;;;;;;;17.78;100.00;99860.94;4993165;28;20590;-80
2022/06/12 02:39:49;;;;;;;9.38;7.65;;;;;;;17.77;100.00;99865.50;4995714;28;20270;-80
2022/06/12 02:42:21;;;;;;;9.88;8.38;;;;;;;17.77;100.00;99864.63;4992848;28;20281;-80
2022/06/12 02:44:52;;;;;;;8.73;7.65;;;;;;;17.55;100.00;99860.09;4993289;28;20277;-80
2022/06/12 02:47:24;;;;;;;9.32;7.18;;;;;;;17.42;100.00;99865.72;4993247;28;20180;-80
2022/06/12 02:49:52;;;;;;;10.73;7.80;;;;;;;17.51;100.00;99856.78;4992945;28;20725;-80
2022/06/12 02:52:24;;;;;;;6.93;6.32;;;;;;;17.50;100.00;99868.66;5007056;28;20283;-79
2022/06/12 02:55:04;;;;;;;6.45;5.85;;;;;;;17.53;100.00;99856.69;5011708;28;20194;-80
2022/06/12 02:57:37;;;;;;;7.85;6.00;;;;;;;17.64;100.00;99860.22;5012115;28;20198;-80
2022/06/12 03:00:11;;;;;;;9.55;5.90;;;;;;;17.62;100.00;99867.66;5012334;28;20182;-81
2022/06/12 03:02:43;;;;;;;9.00;6.68;;;;;;;17.61;100.00;99867.78;5012911;28;20192;-81
2022/06/12 03:05:18;;;;;;;7.15;5.63;;;;;;;17.49;100.00;99877.84;5012460;28;20200;-81
2022/06/12 03:07:45;;;;;;;6.80;6.10;;;;;;;17.57;100.00;99874.47;5016049;28;20540;-80
2022/06/12 03:10:17;;;;;;;7.65;6.10;;;;;;;17.51;100.00;99874.00;5016699;28;20211;-80
2022/06/12 03:12:44;;;;;;;7.00;5.80;;;;;;;17.75;100.00;99869.34;5016111;28;20193;-81
2022/06/12 03:15:30;;;;;;;8.95;5.85;;;;;;;17.79;100.00;99873.53;5016417;28;20288;-81
2022/06/12 03:17:59;;;;;;;6.90;6.22;;;;;;;18.01;100.00;99872.63;5015805;28;20300;-81
2022/06/12 03:20:44;;;;;;;7.80;6.22;;;;;;;18.23;100.00;99879.84;5015789;28;20188;-80
2022/06/12 03:23:21;;;;;;;9.20;5.80;;;;;;;18.25;100.00;99881.44;5016103;28;20271;-80
2022/06/12 03:25:53;;;;;;;5.90;5.30;;;;;;;18.15;100.00;99882.34;5016265;28;20223;-81
2022/06/12 03:28:27;;;;;;;5.50;5.00;;;;;;;18.28;100.00;99885.78;5015594;28;20224;-80
2022/06/12 03:31:00;;;;;;;7.18;5.55;;;;;;;18.04;100.00;99884.13;5015662;28;20329;-80
2022/06/12 03:33:39;;;;;;;6.00;5.40;;;;;;;18.11;100.00;99889.91;5015845;28;20290;-80
2022/06/12 03:36:12;;;;;;;6.30;5.63;;;;;;;17.65;100.00;99889.16;5016053;28;20190;-80
2022/06/12 03:38:47;;;;;;;8.65;4.97;;;;;;;17.54;100.00;99899.22;5016180;28;20201;-80
2022/06/12 03:41:23;;;;;;;7.35;5.38;;;;;;;17.64;100.00;99905.66;5015816;28;20301;-80
2022/06/12 03:43:59;;;;;;;7.07;5.40;;;;;;;17.30;100.00;99914.72;5015970;28;20182;-80
2022/06/12 03:46:30;;;;;;;5.78;5.03;;;;;;;17.41;100.00;99900.25;5015767;28;20703;-80
2022/06/12 03:49:07;;;;;;;7.93;5.07;;;;;;;17.55;100.00;99910.00;5015977;28;20187;-80
2022/06/12 03:51:39;;;;;;;5.30;4.80;;;;;;;17.69;100.00;99909.72;5015753;28;20229;-79
2022/06/12 03:54:14;;;;;;;6.32;4.63;;;;;;;17.86;100.00;99915.66;5015681;28;20855;-79
2022/06/12 03:59:38;;;;;;;6.25;5.63;;;;;;;17.82;100.00;99922.34;5003905;28;20608;-79
2022/06/12 04:02:08;;;;;;;5.25;4.75;;;;;;;18.00;100.00;99914.47;5015178;28;20187;-80
2022/06/12 04:04:40;;;;;;;5.55;4.40;;;;;;;18.23;100.00;99926.19;5014785;28;20189;-79
2022/06/12 04:07:10;;;;;;;7.68;5.28;;;;;;;18.08;100.00;99917.44;5015546;28;20284;-80
2022/06/12 04:09:42;;;;;;;6.95;5.00;;;;;;;18.04;100.00;99925.00;5015059;28;20280;-80
2022/06/12 04:12:15;;;;;;;4.88;4.45;;;;;;;18.05;100.00;99920.44;5014857;28;20190;-80
2022/06/12 04:14:49;;;;;;;5.75;4.90;;;;;;;18.07;100.00;99916.56;5015200;28;20304;-80
2022/06/12 04:17:16;;;;;;;5.97;5.25;;;;;;;18.16;100.00;99917.66;5014933;28;20225;-80
2022/06/12 04:20:04;;;;;;;5.97;4.35;;;;;;;18.29;100.00;99921.09;5014459;28;20337;-79
2022/06/12 04:22:53;;;;;;;5.35;4.18;;;;;;;18.46;100.00;99927.81;5014767;28;20272;-80
2022/06/12 04:25:35;;;;;;;6.82;5.80;;;;;;;18.67;100.00;99922.34;5014640;28;20708;-80
2022/06/12 04:28:03;;;;;;;6.07;5.03;;;;;;;18.78;100.00;99921.44;5014542;28;20624;-80
2022/06/12 04:30:32;;;;;;;10.93;4.70;;;;;;;18.72;100.00;99924.69;5013749;28;20659;-80
2022/06/12 04:33:21;;;;;;;6.00;4.90;;;;;;;18.43;100.00;99929.91;5014673;28;20195;-80
2022/06/12 04:35:53;;;;;;;7.57;5.25;;;;;;;18.57;100.00;99923.31;4994880;28;20195;-80
2022/06/12 04:38:20;;;;;;;10.25;9.15;;;;;;;18.70;100.00;99926.66;4994695;28;20198;-80
2022/06/12 04:40:47;;;;;;;7.00;5.32;;;;;;;18.40;100.00;99932.91;4994935;28;20213;-80
2022/06/12 04:43:14;;;;;;;5.70;4.85;;;;;;;18.45;100.00;99933.38;4994704;28;20274;-80
2022/06/12 04:45:41;;;;;;;8.45;5.95;;;;;;;18.76;100.00;99934.31;5010440;28;20197;-80
2022/06/12 04:48:12;;;;;;;6.13;5.53;;;;;;;18.84;100.00;99936.44;5013988;28;20210;-80
2022/06/12 04:50:39;;;;;;;6.80;5.93;;;;;;;18.57;100.00;99932.34;5014080;28;20522;-79
2022/06/12 04:53:07;;;;;;;8.73;6.63;;;;;;;18.69;100.00;99946.78;5014566;28;20624;-80
2022/06/12 04:55:34;;;;;;;6.38;5.57;;;;;;;18.71;100.00;99926.53;5014087;28;20202;-81
2022/06/12 04:58:01;;;;;;;6.05;5.45;;;;;;;18.58;100.00;99941.38;5013957;28;20276;-80
2022/06/12 05:00:28;;;;;;;6.85;6.10;;;;;;;18.52;100.00;99937.34;5013540;28;20199;-80
2022/06/12 05:02:55;;;;;;;6.80;5.35;;;;;;;18.56;100.00;99938.78;5013657;28;20216;-80
2022/06/12 05:05:22;;;;;;;18.98;10.07;;;;;;;18.95;100.00;99933.63;5013936;28;20591;-80
2022/06/12 05:07:49;;;;;;;7.43;6.00;;;;;;;19.11;100.00;99933.16;5014053;28;20698;-80
2022/06/12 05:10:17;;;;;;;7.40;5.95;;;;;;;19.15;100.00;99929.13;5013492;28;20229;-80
2022/06/12 05:12:43;;;;;;;7.65;6.10;;;;;;;19.14;100.00;99930.13;5006988;28;20676;-81
2022/06/12 05:15:12;;;;;;;6.40;5.80;;;;;;;18.98;100.00;99927.91;4993807;28;20194;-81
2022/06/12 05:17:40;;;;;;;6.07;5.25;;;;;;;19.06;100.00;99929.94;5010530;28;20635;-80
2022/06/12 05:20:09;;;;;;;7.80;5.55;;;;;;;19.21;100.00;99931.31;5013385;28;20192;-80
2022/06/12 05:22:35;;;;;;;7.53;5.70;;;;;;;19.31;100.00;99929.50;5013240;28;20936;-80
2022/06/12 05:25:02;;;;;;;6.72;5.43;;;;;;;19.37;100.00;99925.34;5013397;28;20209;-81
2022/06/12 05:27:32;;;;;;;6.43;5.80;;;;;;;19.23;100.00;99932.03;5013521;28;20274;-80
2022/06/12 05:30:00;;;;;;;6.10;5.50;;;;;;;19.27;100.00;99933.50;5012484;28;20715;-80
2022/06/12 05:32:27;;;;;;;6.00;5.10;;;;;;;19.26;100.00;99920.84;4994881;28;20189;-81
2022/06/12 05:34:54;;;;;;;9.65;5.82;;;;;;;19.35;100.00;99922.75;4992111;28;20538;-80
2022/06/12 05:37:21;;;;;;;6.65;5.63;;;;;;;19.70;100.00;99931.53;4993579;28;20629;-80
2022/06/12 05:39:48;;;;;;;7.47;5.90;;;;;;;19.55;100.00;99936.47;4992946;28;20278;-80
2022/06/12 05:42:14;;;;;;;6.97;6.27;;;;;;;19.61;100.00;99932.34;4993045;28;20514;-80
2022/06/12 05:44:43;;;;;;;6.57;5.87;;;;;;;19.71;100.00;99935.97;4993350;28;20430;-80
2022/06/12 05:47:10;;;;;;;6.20;5.57;;;;;;;19.88;100.00;99937.19;4993017;28;20429;-80
2022/06/12 05:49:37;;;;;;;6.30;5.23;;;;;;;20.16;100.00;99930.03;4993376;28;20989;-78
2022/06/12 05:52:05;;;;;;;6.30;5.30;;;;;;;19.97;100.00;99936.34;4992939;28;20489;-80
2022/06/12 05:54:32;;;;;;;6.90;6.20;;;;;;;20.07;100.00;99939.06;4993304;28;20433;-80
2022/06/12 05:56:58;;;;;;;4.90;4.50;;;;;;;20.19;100.00;99937.94;4993286;28;20801;-81
2022/06/12 05:59:25;;;;;;;7.50;5.43;;;;;;;20.30;100.00;99931.47;4993189;28;20510;-81
2022/06/12 06:01:53;;;;;;;9.67;5.10;;;;;;;20.44;100.00;99928.28;4993157;28;20526;-79
2022/06/12 06:04:20;;;;;;;7.23;5.40;;;;;;;20.78;98.23;99925.13;5007309;28;20434;-80
2022/06/12 06:06:50;;;;;;;7.43;6.07;;;;;;;20.92;96.47;99927.41;5012534;28;20500;-80
2022/06/12 06:09:17;;;;;;;6.90;5.47;;;;;;;21.01;94.42;99937.47;5011974;28;20509;-80
2022/06/12 06:11:44;;;;;;;5.83;5.33;;;;;;;21.22;92.54;99931.78;5012424;28;20476;-81
2022/06/12 06:14:11;;;;;;;6.77;5.17;;;;;;;21.38;90.25;99927.53;5011966;28;20975;-81
2022/06/12 06:16:39;;;;;;;5.20;4.60;;;;;;;21.13;90.29;99934.56;5012011;28;20520;-80
2022/06/12 06:19:08;;;;;;;5.80;4.73;;;;;;;21.11;91.28;99928.38;5012803;28;20764;-80
2022/06/12 06:21:35;;;;;;;6.97;4.90;;;;;;;20.91;94.19;99939.34;5012614;28;20872;-80
2022/06/12 06:24:02;;;;;;;5.37;4.70;;;;;;;21.01;92.88;99948.41;5012352;28;20497;-80
2022/06/12 06:26:28;;;;;;;5.50;4.33;;;;;;;20.76;97.01;99947.16;5012253;28;20512;-81
2022/06/12 06:28:57;;;;;;;6.23;4.20;;;;;;;20.77;98.04;99937.09;5013069;28;20469;-81
2022/06/12 06:31:24;;;;;;;5.67;4.73;;;;;;;21.25;94.51;99938.81;5010847;28;20471;-80
2022/06/12 06:33:51;;;;;;;8.17;4.17;;;;;;;21.70;90.55;99934.47;5031926;28;20444;-81
2022/06/12 06:36:19;;;;;;;4.80;4.40;;;;;;;22.02;87.78;99936.72;5016481;28;20811;-81
2022/06/12 06:38:46;;;;;;;5.07;4.57;;;;;;;22.07;87.27;99939.91;5012223;28;20448;-80
2022/06/12 06:41:14;;;;;;;4.63;3.77;;;;;;;22.33;85.69;99933.66;5013336;28;20473;-80
2022/06/12 06:46:25;;;;;;;10.53;3.70;;;;;;;22.66;83.21;99946.66;5015337;28;20464;-81
2022/06/12 06:48:52;;;;;;;6.23;3.93;;;;;;;22.77;82.50;99941.91;5016330;28;20846;-81
2022/06/12 06:51:21;;;;;;;4.37;3.67;;;;;;;23.04;79.78;99927.22;5016021;28;20539;-80
2022/06/12 06:53:48;;;;;;;4.07;3.67;;;;;;;22.46;83.23;99924.00;5015951;28;20519;-81
2022/06/12 06:56:15;;;;;;;6.63;4.03;;;;;;;22.49;83.72;99922.81;5015944;28;20516;-81
2022/06/12 06:58:41;;;;;;;5.00;3.10;;;;;;;22.92;81.27;99914.75;5015618;28;20881;-81
2022/06/12 07:01:08;;;;;;;5.73;3.87;;;;;;;23.24;78.79;99917.72;5015679;28;20509;-82
2022/06/12 07:03:35;;;;;;;5.30;3.90;;;;;;;23.44;77.12;99914.75;5015757;28;20788;-81
2022/06/12 07:06:02;;;;;;;5.07;3.33;;;;;;;22.92;80.86;99915.59;5015602;28;20490;-81
2022/06/12 07:08:30;;;;;;;4.40;3.37;;;;;;;23.25;79.76;99918.59;4996193;28;20513;-81
2022/06/12 07:10:57;;;;;;;6.27;3.87;;;;;;;23.61;77.00;99919.28;4996486;28;20885;-82
2022/06/12 07:13:25;;;;;;;4.53;4.03;;;;;;;23.82;75.22;99910.63;4996301;28;20518;-82
2022/06/12 07:15:54;;;;;;;7.00;4.03;;;;;;;24.12;73.87;99914.66;4995808;28;20426;-82
2022/06/12 07:18:21;;;;;;;3.63;3.00;;;;;;;24.25;73.09;99914.16;4996051;28;20440;-81
2022/06/12 07:20:52;;;;;;;8.13;3.70;;;;;;;24.29;71.63;99912.78;4997226;28;20426;-80
2022/06/12 07:23:21;;;;;;;7.93;5.70;;;;;;;24.24;71.60;99911.56;5015594;28;20525;-81
2022/06/12 07:25:52;;;;;;;5.33;3.90;;;;;;;24.49;70.11;99912.47;5015548;28;21220;-82
2022/06/12 07:28:20;;;;;;;4.57;4.13;;;;;;;24.46;71.03;99913.66;5015578;28;20508;-81
2022/06/12 07:30:48;;;;;;;4.87;2.70;;;;;;;24.08;72.12;99915.16;5014931;28;20560;-81
2022/06/12 07:33:14;;;;;;;6.33;3.27;;;;;;;23.63;75.12;99910.84;5015679;28;20473;-81
2022/06/12 07:35:42;;;;;;;4.10;3.37;;;;;;;23.87;75.71;99913.72;5015613;28;20516;-82
2022/06/12 07:38:10;;;;;;;5.00;4.00;;;;;;;24.45;71.41;99911.09;5014937;28;20441;-81
2022/06/12 07:40:40;;;;;;;4.10;3.17;;;;;;;24.49;71.15;99909.72;5015448;28;20541;-81
2022/06/12 07:43:08;;;;;;;11.10;3.40;;;;;;;24.78;69.56;99909.19;5015954;28;20420;-81
2022/06/12 07:45:35;;;;;;;4.50;3.73;;;;;;;25.04;67.88;99911.75;5013537;28;20469;-81
2022/06/12 07:48:02;;;;;;;3.83;3.10;;;;;;;24.41;70.33;99917.97;5015351;28;20958;-81
2022/06/12 07:50:28;;;;;;;4.27;3.30;;;;;;;24.46;70.46;99921.06;5014913;28;20548;-81
2022/06/12 07:52:55;;;;;;;10.03;6.93;;;;;;;24.46;70.76;99918.31;5014683;28;20501;-81
2022/06/12 07:55:22;;;;;;;4.40;3.50;;;;;;;24.41;70.08;99917.97;5013958;28;20440;-81
2022/06/12 07:57:49;;;;;;;4.20;3.10;;;;;;;24.88;68.12;99909.88;5015448;28;20537;-81
2022/06/12 08:00:18;;;;;;;3.47;2.80;;;;;;;25.40;64.91;99905.84;5014780;28;20966;-81
2022/06/12 08:02:46;;;;;;;3.83;3.10;;;;;;;24.85;67.40;99907.50;5014632;28;20432;-81
2022/06/12 08:05:15;;;;;;;9.70;3.60;;;;;;;24.72;68.35;99907.16;5014664;28;20541;-81
2022/06/12 08:07:41;;;;;;;4.13;3.43;;;;;;;25.24;65.49;99908.66;5013997;28;20442;-82
2022/06/12 08:10:09;;;;;;;4.00;2.83;;;;;;;25.55;64.28;99903.19;5014705;28;20496;-82
2022/06/12 08:12:38;;;;;;;5.90;3.57;;;;;;;25.75;62.92;99900.84;5014840;28;20992;-81
2022/06/12 08:15:06;;;;;;;5.00;3.83;;;;;;;25.28;65.36;99897.09;5014753;28;20421;-81
2022/06/12 08:17:34;;;;;;;3.60;3.30;;;;;;;25.80;62.81;99903.91;5014865;28;20839;-82
2022/06/12 08:22:45;;;;;;;6.00;3.30;;;;;;;26.19;60.83;99900.28;5014345;28;20494;-81
2022/06/12 08:25:12;;;;;;;4.40;3.07;;;;;;;26.12;61.20;99893.78;5013818;28;20520;-82
2022/06/12 08:27:39;;;;;;;5.10;3.13;;;;;;;26.19;60.90;99905.81;5014429;28;20532;-81
2022/06/12 08:30:08;;;;;;;4.63;3.63;;;;;;;26.28;60.58;99899.19;5014228;28;20477;-82
2022/06/12 08:32:37;;;;;;;8.97;3.53;;;;;;;25.05;65.89;99898.84;5013938;28;20465;-82
2022/06/12 08:35:07;;;;;;;6.90;3.70;;;;;;;25.30;64.74;99899.66;5014461;28;20418;-81
2022/06/12 08:37:40;;;;;;;3.70;3.10;;;;;;;25.74;63.32;99897.25;5014746;28;20607;-81
2022/06/12 08:40:16;;;;;;;4.20;2.90;;;;;;;25.51;64.32;99893.56;5013610;28;20520;-80
2022/06/12 08:42:52;;;;;;;3.90;2.70;;;;;;;25.57;65.22;99893.72;5014215;28;20512;-81
2022/06/12 08:45:22;;;;;;;3.60;3.30;;;;;;;25.28;66.11;99902.63;5013988;28;20982;-81
2022/06/12 08:47:55;;;;;;;3.70;3.40;;;;;;;26.05;63.64;99899.19;5013884;28;20437;-80
2022/06/12 08:50:33;;;;;;;4.80;3.43;;;;;;;26.10;62.71;99893.13;5014423;28;20449;-81
2022/06/12 08:53:06;;;;;;;4.17;3.57;;;;;;;25.58;65.46;99884.41;5013617;28;20906;-80
2022/06/12 08:55:38;;;;;;;3.27;2.93;;;;;;;25.66;65.78;99888.16;5011802;28;20456;-80
2022/06/12 08:58:11;;;;;;;5.10;3.20;;;;;;;25.66;65.72;99888.16;5014454;28;20904;-81
2022/06/12 09:00:39;;;;;;;7.93;3.50;;;;;;;25.95;64.14;99882.84;5013484;28;20438;-81
2022/06/12 09:03:12;;;;;;;3.77;3.00;;;;;;;26.44;61.47;99875.25;5013836;28;20422;-80
2022/06/12 09:05:51;;;;;;;3.63;3.00;;;;;;;26.30;61.04;99879.66;5013519;28;20422;-82
2022/06/12 09:08:27;;;;;;;5.57;3.20;;;;;;;25.79;64.42;99877.41;5014291;28;20755;-81
2022/06/12 09:11:00;;;;;;;3.67;3.30;;;;;;;25.86;64.67;99874.78;5013391;28;20623;-81
2022/06/12 09:13:30;;;;;;;4.20;3.40;;;;;;;25.95;64.21;99870.94;5013984;28;20468;-80
2022/06/12 09:16:05;;;;;;;4.57;3.80;;;;;;;25.51;65.71;99866.84;5014774;28;20501;-80
2022/06/12 09:18:48;;;;;;;4.27;3.57;;;;;;;25.93;64.68;99867.50;5017491;28;20464;-81
2022/06/12 09:21:21;;;;;;;3.90;3.07;;;;;;;26.05;62.94;99865.19;5016146;28;20420;-81
2022/06/12 09:24:00;;;;;;;4.00;2.90;;;;;;;26.36;61.42;99860.47;5018761;28;20454;-79
2022/06/12 09:26:37;;;;;;;3.47;3.00;;;;;;;26.16;62.68;99857.38;5014795;28;20429;-80
2022/06/12 09:29:17;;;;;;;3.80;3.50;;;;;;;26.60;60.38;99861.34;5018935;28;20978;-80
2022/06/12 09:31:51;;;;;;;3.20;2.90;;;;;;;26.75;59.08;99853.94;5008308;28;20623;-81
2022/06/12 09:34:31;;;;;;;5.20;4.40;;;;;;;26.92;58.64;99856.53;5013279;28;20508;-81
2022/06/12 09:40:00;;;;;;;3.30;2.90;;;;;;;26.88;58.82;99855.19;5013330;28;20426;-81
2022/06/12 09:42:37;;;;;;;4.10;3.20;;;;;;;26.92;58.86;99851.00;5013224;28;20427;-80
2022/06/12 09:45:13;;;;;;;3.70;3.30;;;;;;;27.11;56.37;99844.06;5012718;28;20524;-81
2022/06/12 09:47:47;;;;;;;3.70;3.17;;;;;;;26.92;56.21;99851.00;5013347;28;20850;-83
2022/06/12 09:50:32;;;;;;;6.70;3.40;;;;;;;26.57;57.79;99856.16;5013362;28;20867;-82
2022/06/12 09:53:20;;;;;;;5.77;3.10;;;;;;;25.85;58.58;99857.38;5008696;28;20470;-81
2022/06/12 09:55:52;;;;;;;3.47;2.70;;;;;;;26.09;57.93;99855.50;4993640;28;20445;-81
2022/06/12 09:58:29;;;;;;;5.03;2.80;;;;;;;26.19;57.51;99845.09;4993324;28;20469;-81
2022/06/12 10:00:59;;;;;;;4.13;2.80;;;;;;;26.48;56.37;99855.38;4992934;28;20437;-81
2022/06/12 10:03:33;;;;;;;3.90;3.40;;;;;;;26.95;54.62;99842.34;4995010;28;20577;-82
2022/06/12 10:06:05;;;;;;;3.53;3.07;;;;;;;26.95;55.66;99834.03;4993668;28;20435;-81
2022/06/12 10:08:38;;;;;;;3.17;2.63;;;;;;;26.84;56.18;99838.13;5007818;28;20438;-81
2022/06/12 10:11:10;;;;;;;3.70;3.00;;;;;;;26.98;55.84;99836.44;5012376;28;20448;-81
2022/06/12 10:13:45;;;;;;;3.50;2.60;;;;;;;26.82;57.27;99837.47;5016614;28;20887;-81
2022/06/12 10:16:19;;;;;;;5.57;2.63;;;;;;;26.85;57.16;99839.00;5013109;28;20425;-82
2022/06/12 10:18:52;;;;;;;6.90;3.10;;;;;;;26.16;59.83;99834.41;5016719;28;20461;-81
2022/06/12 10:21:23;;;;;;;5.53;3.07;;;;;;;26.24;59.28;99847.31;5012501;28;20517;-84
2022/06/12 10:23:50;;;;;;;4.33;3.57;;;;;;;26.00;60.88;99841.78;5012196;28;20527;-83
2022/06/12 10:26:20;;;;;;;6.17;3.60;;;;;;;26.11;59.53;99839.63;5011706;28;20939;-83
2022/06/12 10:28:47;;;;;;;4.70;3.40;;;;;;;26.57;58.24;99832.19;5012359;28;20521;-82
2022/06/12 10:31:20;;;;;;;3.70;3.40;;;;;;;26.78;57.22;99839.75;5012616;28;20430;-82
2022/06/12 10:33:51;;;;;;;10.63;3.27;;;;;;;26.41;58.31;99840.56;5013258;28;20469;-83
2022/06/12 10:36:28;;;;;;;4.83;3.80;;;;;;;26.88;57.36;99827.56;5012995;28;20422;-82
2022/06/12 10:39:06;;;;;;;4.40;3.30;;;;;;;27.27;55.52;99818.16;5013052;28;20521;-83
2022/06/12 10:41:34;;;;;;;7.70;4.10;;;;;;;27.41;55.50;99817.28;5007883;28;20441;-83
2022/06/12 10:44:01;;;;;;;4.60;3.10;;;;;;;27.54;54.84;99811.03;5012348;28;20438;-80
2022/06/12 10:46:31;;;;;;;4.83;3.10;;;;;;;26.94;56.70;99818.53;5011382;28;20803;-83
2022/06/12 10:49:01;;;;;;;4.60;3.17;;;;;;;26.50;57.47;99820.16;5006188;28;20442;-81
2022/06/12 10:51:36;;;;;;;6.57;3.97;;;;;;;26.75;56.53;99808.88;5000522;28;20446;-82
2022/06/12 10:54:12;;;;;;;6.40;2.90;;;;;;;26.47;57.30;99803.94;5012356;28;20468;-80
2022/06/12 10:56:46;;;;;;;4.97;3.30;;;;;;;26.47;58.01;99811.38;5012244;28;20512;-83
2022/06/12 10:59:34;;;;;;;5.60;3.17;;;;;;;26.61;55.61;99811.44;5012439;28;20464;-82
2022/06/12 11:02:33;;;;;;;4.70;3.10;;;;;;;26.79;54.80;99807.47;5012138;28;20425;-82
2022/06/12 11:05:22;;;;;;;4.50;2.97;;;;;;;27.00;54.05;99801.16;5012471;28;20449;-82
2022/06/12 11:07:57;;;;;;;5.13;2.70;;;;;;;26.90;53.96;99804.22;5012348;28;20497;-81
2022/06/12 11:10:38;;;;;;;3.67;3.07;;;;;;;26.49;55.59;99799.09;5012295;28;20910;-82
2022/06/12 11:13:22;;;;;;;3.73;3.20;;;;;;;26.67;55.13;99797.94;5011580;28;20564;-82
2022/06/12 11:16:10;;;;;;;4.40;3.40;;;;;;;26.78;55.15;99798.31;5011592;28;20430;-82
2022/06/12 11:18:52;;;;;;;6.70;3.00;;;;;;;26.93;54.27;99792.81;5011944;28;20476;-82
2022/06/12 11:21:30;;;;;;;4.30;2.63;;;;;;;26.50;55.06;99788.91;5012033;28;20520;-83
2022/06/12 11:24:15;;;;;;;4.83;2.90;;;;;;;26.53;54.28;99788.56;5012812;28;20456;-82
2022/06/12 11:26:56;;;;;;;4.27;2.83;;;;;;;26.62;54.32;99792.97;5011996;28;20436;-83
2022/06/12 11:29:42;;;;;;;2.90;2.50;;;;;;;26.53;54.69;99785.78;5015373;28;20473;-83
2022/06/12 11:32:20;;;;;;;4.97;2.87;;;;;;;26.45;54.50;99783.94;5015365;28;20480;-83
2022/06/12 11:35:00;;;;;;;5.60;2.40;;;;;;;26.33;54.99;99777.19;5015175;28;20436;-84
2022/06/12 11:37:45;;;;;;;3.97;2.40;;;;;;;26.61;53.63;99780.19;5015933;28;21130;-82
2022/06/12 11:40:25;;;;;;;4.20;2.47;;;;;;;26.96;52.90;99777.75;5015182;28;20436;-82
2022/06/12 11:43:03;;;;;;;2.80;2.20;;;;;;;27.18;51.10;99770.38;5015493;28;20425;-83
2022/06/12 11:45:42;;;;;;;3.87;2.57;;;;;;;27.06;51.59;99772.78;5015664;28;20533;-83
2022/06/12 11:48:23;;;;;;;3.73;2.40;;;;;;;27.41;50.73;99776.66;5014720;28;20434;-82
2022/06/12 11:50:57;;;;;;;3.20;2.33;;;;;;;27.57;50.01;99771.97;5015270;28;20449;-83
2022/06/12 11:53:39;;;;;;;4.00;2.80;;;;;;;27.76;49.11;99776.00;5015323;28;20482;-84
2022/06/12 11:56:22;;;;;;;3.87;2.33;;;;;;;27.47;49.46;99768.63;5014770;28;20529;-82
2022/06/12 11:59:04;;;;;;;3.37;2.00;;;;;;;27.26;50.53;99778.59;5014965;28;20839;-82
2022/06/12 12:01:41;;;;;;;2.53;2.20;;;;;;;27.25;50.76;99760.31;5015493;28;20501;-82
2022/06/12 12:04:25;;;;;;;2.73;2.43;;;;;;;27.13;51.40;99770.94;5017806;28;20500;-82
2022/06/12 12:07:06;;;;;;;2.90;2.40;;;;;;;26.88;51.78;99772.31;5015804;28;20428;-82
2022/06/12 12:09:51;;;;;;;3.30;2.37;;;;;;;27.29;50.93;99774.59;5015269;28;20426;-83